Time;durP1;ratioP1;P1;durP2;ratioP2;P2;SDS_P1;SDS_P2;PMS_P1;PMS_P2;Temp;Humidity;BMP_temperature;BMP_pressure;BME280_temperature;BME280_humidity;BME280_pressure;Samples;Min_cycle;Max_cycle;Signal;HPM_P1;HPM_P2
2021/03/18 00:00:42;;;;;;;14.45;8.80;;;;;;;;;;5036406;28;20175;-54
2021/03/18 00:03:08;;;;;;;13.05;8.98;;;;;;;;;;5036282;28;20198;-54
2021/03/18 00:05:35;;;;;;;12.73;9.32;;;;;;;;;;5035829;28;20203;-53
2021/03/18 00:08:02;;;;;;;10.52;8.63;;;;;;;;;;5031238;28;20677;-54
2021/03/18 00:10:28;;;;;;;15.80;8.57;;;;;;;;;;5036289;28;20246;-53
2021/03/18 00:12:54;;;;;;;11.48;8.90;;;;;;;;;;5036010;28;20187;-55
2021/03/18 00:15:21;;;;;;;12.98;9.30;;;;;;;;;;5032465;28;20673;-54
2021/03/18 00:17:47;;;;;;;13.55;8.80;;;;;;;;;;5035719;28;20808;-53
2021/03/18 00:20:14;;;;;;;14.60;8.45;;;;;;;;;;5035359;28;20207;-53
2021/03/18 00:22:41;;;;;;;11.70;8.45;;;;;;;;;;5035728;28;20175;-57
2021/03/18 00:25:08;;;;;;;11.23;7.82;;;;;;;;;;5035755;28;20198;-53
2021/03/18 00:27:34;;;;;;;15.10;8.48;;;;;;;;;;5034981;28;20552;-52
2021/03/18 00:30:00;;;;;;;11.50;7.33;;;;;;;;;;5035333;28;20679;-53
2021/03/18 00:32:26;;;;;;;14.03;7.20;;;;;;;;;;5035477;28;20445;-53
2021/03/18 00:34:52;;;;;;;12.10;7.97;;;;;;;;;;5035918;28;20409;-53
2021/03/18 00:37:18;;;;;;;15.80;8.90;;;;;;;;;;5032701;28;20178;-53
2021/03/18 00:39:44;;;;;;;11.93;8.50;;;;;;;;;;5035964;28;20196;-53
2021/03/18 00:42:10;;;;;;;16.13;8.27;;;;;;;;;;5035590;28;20410;-53
2021/03/18 00:44:36;;;;;;;13.75;8.65;;;;;;;;;;5035876;28;20621;-52
2021/03/18 00:47:02;;;;;;;13.03;9.47;;;;;;;;;;5035942;28;20229;-52
2021/03/18 00:49:28;;;;;;;13.90;9.43;;;;;;;;;;5035266;28;20480;-52
2021/03/18 00:51:54;;;;;;;18.30;9.00;;;;;;;;;;5035708;28;20250;-57
2021/03/18 00:54:20;;;;;;;14.77;9.10;;;;;;;;;;5036069;28;20483;-53
2021/03/18 00:56:46;;;;;;;17.20;9.03;;;;;;;;;;5035592;28;20692;-52
2021/03/18 00:59:12;;;;;;;13.63;9.00;;;;;;;;;;5035399;28;20434;-53
2021/03/18 01:01:39;;;;;;;11.33;9.17;;;;;;;;;;5035525;28;20433;-58
2021/03/18 01:04:05;;;;;;;18.27;10.15;;;;;;;;;;5035638;28;20764;-53
2021/03/18 01:06:31;;;;;;;12.20;8.98;;;;;;;;;;5035557;28;20167;-53
2021/03/18 01:08:58;;;;;;;19.02;9.02;;;;;;;;;;5030933;28;20195;-54
2021/03/18 01:11:26;;;;;;;13.32;9.77;;;;;;;;;;5035934;28;20662;-52
2021/03/18 01:13:54;;;;;;;11.75;8.90;;;;;;;;;;5035627;28;20179;-53
2021/03/18 01:16:22;;;;;;;13.85;9.60;;;;;;;;;;5035379;28;20217;-62
2021/03/18 01:18:49;;;;;;;16.95;8.40;;;;;;;;;;5035107;28;20686;-53
2021/03/18 01:21:16;;;;;;;10.40;8.90;;;;;;;;;;5035286;28;20605;-53
2021/03/18 01:23:42;;;;;;;21.13;10.57;;;;;;;;;;5035278;28;20245;-53
2021/03/18 01:26:09;;;;;;;15.93;10.85;;;;;;;;;;5035413;28;20171;-53
2021/03/18 01:28:36;;;;;;;13.35;9.18;;;;;;;;;;5034841;28;20262;-53
2021/03/18 01:31:03;;;;;;;14.55;10.05;;;;;;;;;;5035053;28;20632;-52
2021/03/18 01:33:29;;;;;;;12.05;8.55;;;;;;;;;;5034966;28;20179;-52
2021/03/18 01:35:55;;;;;;;18.20;9.32;;;;;;;;;;5034840;28;20176;-52
2021/03/18 01:38:22;;;;;;;17.38;9.68;;;;;;;;;;5032300;28;20191;-53
2021/03/18 01:40:48;;;;;;;16.40;9.88;;;;;;;;;;5032804;28;20179;-52
2021/03/18 01:43:14;;;;;;;13.20;9.87;;;;;;;;;;5034539;28;20179;-52
2021/03/18 01:45:40;;;;;;;16.98;9.68;;;;;;;;;;5034703;28;20411;-52
2021/03/18 01:48:06;;;;;;;15.13;9.65;;;;;;;;;;5032935;28;20184;-52
2021/03/18 01:50:35;;;;;;;13.65;8.90;;;;;;;;;;5034384;28;20289;-52
2021/03/18 01:53:01;;;;;;;12.38;9.93;;;;;;;;;;5034193;28;20171;-52
2021/03/18 01:55:29;;;;;;;12.35;9.70;;;;;;;;;;5033605;28;20172;-53
2021/03/18 01:57:55;;;;;;;26.65;9.73;;;;;;;;;;5033866;28;20171;-53
2021/03/18 02:00:21;;;;;;;17.40;10.40;;;;;;;;;;5033810;28;20203;-59
2021/03/18 02:02:47;;;;;;;17.17;9.85;;;;;;;;;;5033065;28;20425;-54
2021/03/18 02:05:14;;;;;;;12.63;9.77;;;;;;;;;;5033791;28;20450;-54
2021/03/18 02:07:40;;;;;;;18.25;11.25;;;;;;;;;;5033437;28;20221;-54
2021/03/18 02:10:07;;;;;;;15.07;10.20;;;;;;;;;;5028893;28;20226;-53
2021/03/18 02:12:33;;;;;;;19.52;10.15;;;;;;;;;;5034032;28;20250;-52
2021/03/18 02:14:59;;;;;;;17.42;10.73;;;;;;;;;;5034589;28;20236;-53
2021/03/18 02:17:42;;;;;;;14.10;9.70;;;;;;;;;;5034453;28;20221;-53
2021/03/18 02:20:23;;;;;;;15.70;11.23;;;;;;;;;;5034467;28;20198;-53
2021/03/18 02:23:11;;;;;;;14.23;11.00;;;;;;;;;;5034171;28;20700;-53
2021/03/18 02:25:47;;;;;;;23.95;12.20;;;;;;;;;;5034171;28;20255;-53
2021/03/18 02:28:30;;;;;;;16.02;9.93;;;;;;;;;;5033653;28;20307;-53
2021/03/18 02:31:25;;;;;;;11.90;9.30;;;;;;;;;;5034471;28;20647;-53
2021/03/18 02:33:51;;;;;;;14.02;10.18;;;;;;;;;;5020914;28;20292;-53
2021/03/18 02:36:20;;;;;;;16.90;9.07;;;;;;;;;;5034130;28;20830;-54
2021/03/18 02:38:51;;;;;;;17.90;9.15;;;;;;;;;;5033796;28;20438;-53
2021/03/18 02:41:21;;;;;;;22.67;11.25;;;;;;;;;;5030287;28;20187;-52
2021/03/18 02:44:07;;;;;;;19.42;10.75;;;;;;;;;;5034139;28;20195;-52
2021/03/18 02:46:34;;;;;;;19.20;11.05;;;;;;;;;;5034250;28;20179;-53
2021/03/18 02:49:03;;;;;;;19.33;12.07;;;;;;;;;;5033792;28;20225;-53
2021/03/18 02:51:30;;;;;;;12.30;10.88;;;;;;;;;;5034292;28;20167;-52
2021/03/18 02:53:57;;;;;;;19.92;10.88;;;;;;;;;;5034398;28;20163;-54
2021/03/18 02:56:23;;;;;;;14.70;10.50;;;;;;;;;;5033711;28;20645;-53
2021/03/18 02:58:51;;;;;;;21.25;11.85;;;;;;;;;;5033465;28;20191;-53
2021/03/18 03:01:18;;;;;;;14.18;10.43;;;;;;;;;;5034048;28;20172;-53
2021/03/18 03:03:44;;;;;;;13.48;10.77;;;;;;;;;;5033840;28;20182;-52
2021/03/18 03:06:12;;;;;;;16.50;11.05;;;;;;;;;;5036689;28;20318;-52
2021/03/18 03:08:39;;;;;;;16.88;10.65;;;;;;;;;;5037416;28;20249;-52
2021/03/18 03:11:05;;;;;;;19.83;11.20;;;;;;;;;;5033410;28;20239;-53
2021/03/18 03:13:33;;;;;;;16.08;11.02;;;;;;;;;;5037289;28;20174;-53
2021/03/18 03:16:01;;;;;;;16.58;11.25;;;;;;;;;;5037259;28;20217;-52
2021/03/18 03:18:28;;;;;;;13.32;10.13;;;;;;;;;;5037457;28;20222;-52
2021/03/18 03:20:54;;;;;;;14.15;11.68;;;;;;;;;;5037612;28;20170;-52
2021/03/18 03:23:22;;;;;;;13.73;10.57;;;;;;;;;;5037531;28;20262;-53
2021/03/18 03:25:48;;;;;;;16.83;11.15;;;;;;;;;;5037459;28;20172;-53
2021/03/18 03:28:15;;;;;;;20.77;11.43;;;;;;;;;;5036808;28;20191;-54
2021/03/18 03:30:41;;;;;;;16.10;11.15;;;;;;;;;;5037219;28;20242;-54
2021/03/18 03:33:08;;;;;;;15.65;10.30;;;;;;;;;;5037272;28;20689;-52
2021/03/18 03:35:35;;;;;;;13.02;10.05;;;;;;;;;;5036797;28;20166;-53
2021/03/18 03:38:01;;;;;;;14.32;10.57;;;;;;;;;;5036976;28;20167;-59
2021/03/18 03:40:27;;;;;;;20.90;11.10;;;;;;;;;;5035603;28;20190;-54
2021/03/18 03:42:53;;;;;;;13.45;10.70;;;;;;;;;;5037056;28;20695;-53
2021/03/18 03:45:20;;;;;;;12.32;9.98;;;;;;;;;;5036704;28;20171;-58
2021/03/18 03:47:46;;;;;;;15.05;11.02;;;;;;;;;;5036630;28;20179;-54
2021/03/18 03:50:15;;;;;;;15.70;11.30;;;;;;;;;;5036639;28;20214;-53
2021/03/18 03:52:50;;;;;;;15.52;11.60;;;;;;;;;;5036949;28;20170;-54
2021/03/18 03:55:35;;;;;;;20.95;11.88;;;;;;;;;;5036697;28;20230;-53
2021/03/18 03:58:19;;;;;;;14.25;10.88;;;;;;;;;;5036554;28;20167;-53
2021/03/18 04:00:45;;;;;;;16.67;10.60;;;;;;;;;;5036846;28;20176;-54
2021/03/18 04:03:12;;;;;;;14.02;11.45;;;;;;;;;;5036325;28;20218;-53
2021/03/18 04:05:39;;;;;;;16.50;11.15;;;;;;;;;;5036618;28;20190;-54
2021/03/18 04:08:07;;;;;;;21.50;11.20;;;;;;;;;;5036247;28;20175;-55
2021/03/18 04:10:34;;;;;;;15.60;11.30;;;;;;;;;;5033680;28;20218;-60
2021/03/18 04:13:00;;;;;;;14.98;10.38;;;;;;;;;;5036732;28;20183;-54
2021/03/18 04:15:28;;;;;;;12.60;10.55;;;;;;;;;;5036365;28;20290;-54
2021/03/18 04:17:58;;;;;;;19.95;10.85;;;;;;;;;;5035288;28;20641;-53
2021/03/18 04:20:25;;;;;;;14.30;11.30;;;;;;;;;;5035733;28;20172;-53
2021/03/18 04:22:54;;;;;;;19.38;10.48;;;;;;;;;;5036442;28;20172;-54
2021/03/18 04:25:21;;;;;;;21.30;11.73;;;;;;;;;;5036064;28;20221;-53
2021/03/18 04:27:47;;;;;;;20.40;11.52;;;;;;;;;;5036153;28;20178;-62
2021/03/18 04:30:15;;;;;;;15.05;12.23;;;;;;;;;;5036030;28;20664;-53
2021/03/18 04:32:42;;;;;;;14.13;12.00;;;;;;;;;;5036250;28;20226;-55
2021/03/18 04:35:09;;;;;;;21.70;12.15;;;;;;;;;;5035911;28;20174;-52
2021/03/18 04:37:35;;;;;;;17.42;12.57;;;;;;;;;;5036860;28;20175;-52
2021/03/18 04:40:03;;;;;;;15.98;12.98;;;;;;;;;;5035029;28;20246;-52
2021/03/18 04:42:30;;;;;;;16.75;12.20;;;;;;;;;;5034949;28;20175;-52
2021/03/18 04:44:56;;;;;;;21.92;12.32;;;;;;;;;;5037107;28;20218;-51
2021/03/18 04:47:22;;;;;;;22.40;14.50;;;;;;;;;;5036374;28;20671;-52
2021/03/18 04:49:49;;;;;;;18.45;12.90;;;;;;;;;;5036010;28;20261;-53
2021/03/18 04:52:16;;;;;;;17.35;12.02;;;;;;;;;;5037142;28;20225;-51
2021/03/18 04:54:42;;;;;;;18.60;13.07;;;;;;;;;;5036802;28;20163;-51
2021/03/18 04:57:09;;;;;;;17.25;12.80;;;;;;;;;;5036762;28;20670;-52
2021/03/18 04:59:36;;;;;;;15.50;11.05;;;;;;;;;;5036188;28;20224;-52
2021/03/18 05:02:02;;;;;;;15.77;12.18;;;;;;;;;;5036350;28;20179;-51
2021/03/18 05:04:30;;;;;;;16.77;12.02;;;;;;;;;;5037224;28;20171;-51
2021/03/18 05:06:56;;;;;;;18.55;13.30;;;;;;;;;;5036990;28;20242;-52
2021/03/18 05:09:26;;;;;;;17.30;12.50;;;;;;;;;;5036075;28;20198;-51
2021/03/18 05:11:53;;;;;;;18.10;12.40;;;;;;;;;;5033076;28;20167;-52
2021/03/18 05:14:19;;;;;;;15.40;12.75;;;;;;;;;;5036615;28;20173;-52
2021/03/18 05:16:45;;;;;;;19.88;11.65;;;;;;;;;;5036991;28;20174;-53
2021/03/18 05:19:13;;;;;;;16.63;11.90;;;;;;;;;;5035932;28;20184;-51
2021/03/18 05:21:40;;;;;;;17.02;11.55;;;;;;;;;;5036369;28;20180;-51
2021/03/18 05:24:10;;;;;;;15.23;11.35;;;;;;;;;;5036173;28;20174;-52
2021/03/18 05:26:36;;;;;;;14.52;11.60;;;;;;;;;;5036143;28;20218;-53
2021/03/18 05:29:02;;;;;;;20.23;13.45;;;;;;;;;;5035985;28;20188;-52
2021/03/18 05:31:28;;;;;;;17.20;12.55;;;;;;;;;;5036125;28;20264;-53
2021/03/18 05:33:54;;;;;;;14.83;12.37;;;;;;;;;;5036190;28;20168;-51
2021/03/18 05:36:20;;;;;;;18.20;12.68;;;;;;;;;;5035603;28;20398;-50
2021/03/18 05:38:47;;;;;;;17.20;12.55;;;;;;;;;;5036112;28;20194;-51
2021/03/18 05:41:13;;;;;;;16.25;13.65;;;;;;;;;;5034033;28;20182;-52
2021/03/18 05:43:39;;;;;;;20.10;14.05;;;;;;;;;;5035383;28;20702;-53
2021/03/18 05:46:05;;;;;;;14.95;12.55;;;;;;;;;;5035772;28;20168;-52
2021/03/18 05:48:32;;;;;;;16.13;12.53;;;;;;;;;;5035504;28;20195;-53
2021/03/18 05:50:58;;;;;;;19.42;12.40;;;;;;;;;;5035702;28;20450;-51
2021/03/18 05:53:25;;;;;;;21.75;13.48;;;;;;;;;;5036152;28;20163;-52
2021/03/18 05:55:52;;;;;;;17.85;12.90;;;;;;;;;;5035654;28;20666;-51
2021/03/18 05:58:21;;;;;;;20.80;12.68;;;;;;;;;;5035331;28;20215;-52
2021/03/18 06:00:47;;;;;;;16.17;11.88;;;;;;;;;;5035576;28;20172;-51
2021/03/18 06:03:13;;;;;;;15.75;12.63;;;;;;;;;;5035781;28;20670;-51
2021/03/18 06:05:39;;;;;;;18.40;13.70;;;;;;;;;;5035243;28;20172;-51
2021/03/18 06:08:08;;;;;;;15.07;12.10;;;;;;;;;;5034947;28;20410;-52
2021/03/18 06:10:34;;;;;;;20.23;13.07;;;;;;;;;;5031998;28;20195;-55
2021/03/18 06:13:00;;;;;;;15.98;12.98;;;;;;;;;;5035634;28;20178;-53
2021/03/18 06:15:27;;;;;;;22.33;13.57;;;;;;;;;;5035251;28;20659;-52
2021/03/18 06:17:53;;;;;;;16.33;12.95;;;;;;;;;;5035657;28;20527;-52
2021/03/18 06:20:27;;;;;;;20.92;13.93;;;;;;;;;;5034977;28;20250;-51
2021/03/18 06:22:54;;;;;;;18.98;12.52;;;;;;;;;;5034611;28;20247;-52
2021/03/18 06:25:20;;;;;;;13.98;12.55;;;;;;;;;;5035066;28;20171;-51
2021/03/18 06:27:46;;;;;;;19.17;12.73;;;;;;;;;;5034781;28;20172;-50
2021/03/18 06:30:12;;;;;;;15.43;13.83;;;;;;;;;;5034327;28;20482;-50
2021/03/18 06:32:38;;;;;;;15.10;12.25;;;;;;;;;;5034367;28;20406;-51
2021/03/18 06:35:05;;;;;;;13.80;12.20;;;;;;;;;;5033993;28;20167;-51
2021/03/18 06:37:30;;;;;;;16.88;11.70;;;;;;;;;;5034268;28;20566;-52
2021/03/18 06:40:05;;;;;;;22.30;13.30;;;;;;;;;;5030857;28;20743;-54
2021/03/18 06:42:32;;;;;;;18.70;12.95;;;;;;;;;;5034646;28;20441;-51
2021/03/18 06:45:03;;;;;;;15.02;12.73;;;;;;;;;;5034074;28;20224;-51
2021/03/18 06:47:39;;;;;;;16.60;13.05;;;;;;;;;;5033481;28;20533;-51
2021/03/18 06:50:05;;;;;;;15.30;11.82;;;;;;;;;;5032858;28;20278;-52
2021/03/18 06:52:36;;;;;;;17.08;12.50;;;;;;;;;;5033125;28;20543;-50
2021/03/18 06:55:02;;;;;;;19.95;13.77;;;;;;;;;;5034025;28;20558;-51
2021/03/18 06:57:28;;;;;;;17.25;11.45;;;;;;;;;;5034382;28;20169;-53
2021/03/18 06:59:54;;;;;;;16.13;12.17;;;;;;;;;;5034047;28;20704;-54
2021/03/18 07:02:20;;;;;;;13.50;12.10;;;;;;;;;;5032463;28;20429;-53
2021/03/18 07:04:50;;;;;;;19.50;12.65;;;;;;;;;;5033566;28;20785;-53
2021/03/18 07:07:17;;;;;;;17.63;12.43;;;;;;;;;;5033598;28;20180;-53
2021/03/18 07:09:44;;;;;;;14.98;12.25;;;;;;;;;;5034064;28;20245;-51
2021/03/18 07:12:11;;;;;;;12.90;10.27;;;;;;;;;;5031079;28;20179;-51
2021/03/18 07:14:47;;;;;;;12.73;10.88;;;;;;;;;;5033162;28;20636;-52
2021/03/18 07:17:18;;;;;;;13.05;10.85;;;;;;;;;;5015710;28;20182;-51
2021/03/18 07:19:44;;;;;;;15.63;10.57;;;;;;;;;;5011824;28;20258;-50
2021/03/18 07:22:20;;;;;;;16.63;10.68;;;;;;;;;;5010863;28;20180;-51
2021/03/18 07:24:53;;;;;;;13.02;10.25;;;;;;;;;;5010702;28;20180;-52
2021/03/18 07:27:22;;;;;;;14.25;10.77;;;;;;;;;;5010593;28;20255;-54
2021/03/18 07:29:50;;;;;;;13.02;11.27;;;;;;;;;;5010298;28;20221;-53
2021/03/18 07:32:17;;;;;;;16.30;11.35;;;;;;;;;;5010262;28;20164;-53
2021/03/18 07:34:44;;;;;;;15.98;10.55;;;;;;;;;;5009395;28;20594;-50
2021/03/18 07:37:11;;;;;;;12.07;9.63;;;;;;;;;;5010387;28;20203;-51
2021/03/18 07:39:38;;;;;;;15.30;10.27;;;;;;;;;;5012202;28;20987;-50
2021/03/18 07:42:04;;;;;;;13.33;10.07;;;;;;;;;;5030005;28;20415;-50
2021/03/18 07:44:30;;;;;;;15.27;9.83;;;;;;;;;;5030175;28;20483;-53
2021/03/18 07:46:58;;;;;;;9.93;8.93;;;;;;;;;;5030060;28;20507;-50
2021/03/18 07:49:25;;;;;;;10.97;9.10;;;;;;;;;;5029751;28;20421;-53
2021/03/18 07:51:53;;;;;;;10.43;9.40;;;;;;;;;;5030558;28;20421;-51
2021/03/18 07:54:20;;;;;;;10.50;9.47;;;;;;;;;;5033704;28;20956;-50
2021/03/18 07:56:46;;;;;;;13.80;9.23;;;;;;;;;;5033537;28;20432;-53
2021/03/18 07:59:12;;;;;;;12.33;9.30;;;;;;;;;;5033350;28;20468;-50
2021/03/18 08:01:39;;;;;;;11.60;8.90;;;;;;;;;;5033435;28;21219;-50
2021/03/18 08:04:06;;;;;;;18.20;10.37;;;;;;;;;;5033596;28;20776;-52
2021/03/18 08:06:41;;;;;;;14.40;8.83;;;;;;;;;;5033493;28;20878;-54
2021/03/18 08:09:07;;;;;;;12.90;8.57;;;;;;;;;;5033094;28;20445;-52
2021/03/18 08:11:37;;;;;;;11.27;9.23;;;;;;;;;;5029989;28;20512;-54
2021/03/18 08:14:13;;;;;;;17.03;9.10;;;;;;;;;;5033316;28;20406;-53
2021/03/18 08:16:39;;;;;;;19.03;10.90;;;;;;;;;;5033298;28;20555;-55
2021/03/18 08:19:09;;;;;;;15.50;10.23;;;;;;;;;;5032938;28;20437;-51
2021/03/18 08:21:38;;;;;;;15.73;11.77;;;;;;;;;;5033324;28;20503;-54
2021/03/18 08:24:07;;;;;;;13.40;10.07;;;;;;;;;;5033354;28;20436;-50
2021/03/18 08:26:51;;;;;;;20.97;10.03;;;;;;;;;;5033660;28;20772;-50
2021/03/18 08:29:35;;;;;;;14.57;9.60;;;;;;;;;;5032919;28;20429;-50
2021/03/18 08:32:03;;;;;;;22.73;9.63;;;;;;;;;;5032849;28;20462;-54
2021/03/18 08:34:41;;;;;;;15.63;10.37;;;;;;;;;;5033263;28;20401;-50
2021/03/18 08:37:07;;;;;;;16.27;9.60;;;;;;;;;;5033189;28;20404;-51
2021/03/18 08:39:36;;;;;;;18.40;10.30;;;;;;;;;;5025478;28;20437;-53
2021/03/18 08:42:02;;;;;;;16.37;10.23;;;;;;;;;;5018494;28;20429;-53
2021/03/18 08:44:31;;;;;;;13.53;9.23;;;;;;;;;;5013481;28;20807;-51
2021/03/18 08:46:58;;;;;;;21.50;10.23;;;;;;;;;;5011538;28;20409;-50
2021/03/18 08:49:27;;;;;;;14.23;8.60;;;;;;;;;;5012489;28;20515;-53
2021/03/18 08:51:53;;;;;;;19.33;8.60;;;;;;;;;;5013369;28;20752;-50
2021/03/18 08:54:40;;;;;;;13.67;10.97;;;;;;;;;;5015524;28;20876;-51
2021/03/18 08:57:21;;;;;;;13.70;9.70;;;;;;;;;;5015740;28;20437;-52
2021/03/18 08:59:49;;;;;;;14.47;9.93;;;;;;;;;;5015034;28;20437;-50
2021/03/18 09:02:16;;;;;;;15.00;11.10;;;;;;;;;;5015764;28;20479;-54
2021/03/18 09:04:43;;;;;;;19.60;11.63;;;;;;;;;;5015436;28;20440;-54
2021/03/18 09:07:10;;;;;;;14.07;12.13;;;;;;;;;;5015012;28;20775;-52
2021/03/18 09:09:36;;;;;;;18.93;11.90;;;;;;;;;;5015063;28;21139;-51
2021/03/18 09:12:03;;;;;;;17.30;11.70;;;;;;;;;;5026092;28;20440;-54
2021/03/18 09:14:30;;;;;;;20.73;11.80;;;;;;;;;;5035251;28;20957;-52
2021/03/18 09:17:06;;;;;;;12.37;10.80;;;;;;;;;;5032852;28;20452;-52
2021/03/18 09:19:32;;;;;;;13.73;11.70;;;;;;;;;;5032089;28;20586;-51
2021/03/18 09:21:58;;;;;;;14.00;10.63;;;;;;;;;;5034906;28;20403;-51
2021/03/18 09:24:33;;;;;;;13.40;9.93;;;;;;;;;;5033263;28;20401;-53
2021/03/18 09:27:06;;;;;;;10.73;9.57;;;;;;;;;;5034976;28;20466;-56
2021/03/18 09:29:33;;;;;;;14.80;10.00;;;;;;;;;;5034573;28;20991;-50
2021/03/18 09:32:06;;;;;;;14.37;10.77;;;;;;;;;;5034671;28;20436;-54
2021/03/18 09:34:36;;;;;;;15.03;10.07;;;;;;;;;;5035061;28;20401;-50
2021/03/18 09:37:03;;;;;;;11.50;8.70;;;;;;;;;;5034807;28;20409;-53
2021/03/18 09:39:29;;;;;;;10.00;9.00;;;;;;;;;;5035194;28;20828;-50
2021/03/18 09:42:00;;;;;;;18.20;10.17;;;;;;;;;;5029328;28;20465;-52
2021/03/18 09:44:27;;;;;;;11.83;8.43;;;;;;;;;;5032655;28;20782;-51
2021/03/18 09:47:11;;;;;;;11.70;7.60;;;;;;;;;;5032173;28;20761;-52
2021/03/18 09:49:39;;;;;;;7.87;7.00;;;;;;;;;;5031808;28;20454;-51
2021/03/18 09:52:06;;;;;;;10.50;8.43;;;;;;;;;;5032672;28;20443;-54
2021/03/18 09:54:32;;;;;;;11.90;8.83;;;;;;;;;;5032383;28;20399;-51
2021/03/18 09:57:00;;;;;;;11.53;8.47;;;;;;;;;;5032321;28;20428;-51
2021/03/18 09:59:27;;;;;;;16.87;9.27;;;;;;;;;;5023853;28;20515;-62
2021/03/18 10:01:53;;;;;;;14.80;10.47;;;;;;;;;;5014949;28;20429;-53
2021/03/18 10:04:20;;;;;;;14.37;8.53;;;;;;;;;;5010837;28;20423;-52
2021/03/18 10:06:47;;;;;;;17.47;9.00;;;;;;;;;;5015605;28;20401;-52
2021/03/18 10:09:31;;;;;;;14.10;8.70;;;;;;;;;;5014908;28;20437;-52
2021/03/18 10:11:57;;;;;;;13.83;9.30;;;;;;;;;;5012090;28;20441;-52
2021/03/18 10:14:24;;;;;;;10.47;8.00;;;;;;;;;;4995942;28;20564;-50
2021/03/18 10:16:50;;;;;;;14.07;7.83;;;;;;;;;;5019576;28;20423;-52
2021/03/18 10:19:20;;;;;;;11.30;8.27;;;;;;;;;;5041564;28;20424;-53
2021/03/18 10:21:50;;;;;;;8.63;7.67;;;;;;;;;;5041237;28;20495;-52
2021/03/18 10:24:37;;;;;;;8.13;7.33;;;;;;;;;;5043185;28;20401;-51
2021/03/18 10:30:02;;;;;;;9.13;7.83;;;;;;;;;;5038591;28;21054;-53
2021/03/18 10:32:28;;;;;;;9.03;7.23;;;;;;;;;;5041305;28;20485;-55
2021/03/18 10:34:57;;;;;;;16.03;6.87;;;;;;;;;;5042187;28;20521;-55
2021/03/18 10:37:27;;;;;;;14.80;7.40;;;;;;;;;;5035796;28;20401;-53
2021/03/18 10:40:12;;;;;;;9.50;6.90;;;;;;;;;;5032643;28;20440;-54
2021/03/18 10:42:38;;;;;;;14.23;7.00;;;;;;;;;;5028931;28;20433;-53
2021/03/18 10:45:33;;;;;;;7.77;7.07;;;;;;;;;;5032725;28;20408;-53
2021/03/18 10:48:01;;;;;;;10.30;7.23;;;;;;;;;;5019981;28;20429;-53
2021/03/18 10:50:29;;;;;;;8.90;7.40;;;;;;;;;;5032545;28;20540;-54
2021/03/18 10:53:05;;;;;;;9.37;7.93;;;;;;;;;;5032881;28;20431;-52
2021/03/18 10:55:35;;;;;;;9.37;7.87;;;;;;;;;;5033342;28;20461;-53
2021/03/18 10:58:03;;;;;;;10.97;7.37;;;;;;;;;;5032760;28;20462;-54
2021/03/18 11:00:32;;;;;;;9.33;6.70;;;;;;;;;;5032322;28;20401;-53
2021/03/18 11:02:59;;;;;;;12.33;7.60;;;;;;;;;;5032206;28;20454;-52
2021/03/18 11:05:29;;;;;;;11.37;7.33;;;;;;;;;;5031683;28;20489;-52
2021/03/18 11:07:56;;;;;;;8.40;6.53;;;;;;;;;;5031648;28;20968;-52
2021/03/18 11:10:22;;;;;;;8.40;7.20;;;;;;;;;;5032154;28;20580;-53
2021/03/18 11:12:58;;;;;;;18.87;9.10;;;;;;;;;;5027350;28;20436;-52
2021/03/18 11:15:25;;;;;;;14.00;8.80;;;;;;;;;;5031295;28;20412;-54
2021/03/18 11:18:07;;;;;;;11.97;10.03;;;;;;;;;;5030734;28;20493;-53
2021/03/18 11:20:40;;;;;;;12.87;10.60;;;;;;;;;;5029967;28;20512;-54
2021/03/18 11:23:06;;;;;;;10.47;9.20;;;;;;;;;;5031585;28;20405;-54
2021/03/18 11:25:33;;;;;;;12.00;10.07;;;;;;;;;;5032620;28;20461;-53
2021/03/18 11:27:59;;;;;;;21.10;11.80;;;;;;;;;;5035583;28;20910;-53
2021/03/18 11:30:35;;;;;;;19.87;13.83;;;;;;;;;;5035705;28;20548;-53
2021/03/18 11:33:07;;;;;;;14.10;12.17;;;;;;;;;;5035572;28;20400;-53
2021/03/18 11:35:33;;;;;;;22.47;13.70;;;;;;;;;;5034841;28;20409;-53
2021/03/18 11:37:59;;;;;;;19.40;13.13;;;;;;;;;;5035300;28;20408;-53
2021/03/18 11:40:25;;;;;;;19.50;13.30;;;;;;;;;;5034983;28;20412;-53
2021/03/18 11:42:51;;;;;;;23.63;14.47;;;;;;;;;;5031414;28;21035;-53
2021/03/18 11:45:17;;;;;;;20.17;15.37;;;;;;;;;;5035307;28;20519;-52
2021/03/18 11:47:43;;;;;;;18.03;13.60;;;;;;;;;;5035698;28;20468;-53
2021/03/18 11:50:10;;;;;;;25.33;16.70;;;;;;;;;;5035793;28;20462;-53
2021/03/18 11:52:36;;;;;;;27.27;17.57;;;;;;;;;;5035879;28;20412;-52
2021/03/18 11:55:02;;;;;;;29.83;16.60;;;;;;;;;;5036491;28;20472;-56
2021/03/18 11:57:28;;;;;;;29.85;17.40;;;;;;;;;;5036728;28;20404;-52
2021/03/18 11:59:54;;;;;;;21.23;16.40;;;;;;;;;;5035969;28;20192;-53
2021/03/18 12:02:20;;;;;;;22.83;15.13;;;;;;;;;;5034869;28;20688;-53
2021/03/18 12:04:46;;;;;;;23.10;15.10;;;;;;;;;;5034393;28;21094;-53
2021/03/18 12:07:12;;;;;;;19.07;13.13;;;;;;;;;;5034098;28;20782;-53
2021/03/18 12:09:38;;;;;;;19.60;13.87;;;;;;;;;;5031653;28;20424;-57
2021/03/18 12:12:05;;;;;;;27.40;14.03;;;;;;;;;;5035662;28;20405;-54
2021/03/18 12:14:31;;;;;;;26.10;16.50;;;;;;;;;;5035760;28;20777;-54
2021/03/18 12:16:57;;;;;;;28.10;17.80;;;;;;;;;;5035385;28;20408;-54
2021/03/18 12:19:23;;;;;;;26.07;17.53;;;;;;;;;;5035593;28;20426;-54
2021/03/18 12:21:49;;;;;;;35.57;19.47;;;;;;;;;;5035420;28;20407;-54
2021/03/18 12:24:15;;;;;;;26.53;15.63;;;;;;;;;;5034919;28;20455;-52
2021/03/18 12:26:41;;;;;;;21.53;15.47;;;;;;;;;;5035033;28;20406;-55
2021/03/18 12:29:08;;;;;;;25.00;15.90;;;;;;;;;;5035375;28;20790;-53
2021/03/18 12:31:34;;;;;;;21.03;14.80;;;;;;;;;;5035232;28;21017;-58
2021/03/18 12:34:00;;;;;;;26.53;14.03;;;;;;;;;;5035321;28;20400;-53
2021/03/18 12:36:26;;;;;;;18.80;12.63;;;;;;;;;;5034442;28;20404;-52
2021/03/18 12:38:52;;;;;;;24.25;11.52;;;;;;;;;;5033210;28;20193;-54
2021/03/18 12:41:18;;;;;;;17.17;12.40;;;;;;;;;;5030495;28;20184;-54
2021/03/18 12:43:44;;;;;;;18.50;11.93;;;;;;;;;;5033210;28;20423;-53
2021/03/18 12:46:10;;;;;;;11.60;10.17;;;;;;;;;;5033496;28;20416;-54
2021/03/18 12:48:36;;;;;;;13.47;11.10;;;;;;;;;;5034449;28;20490;-53
2021/03/18 12:51:02;;;;;;;11.43;9.70;;;;;;;;;;5034355;28;20455;-53
2021/03/18 12:53:28;;;;;;;15.27;9.80;;;;;;;;;;5034205;28;20453;-53
2021/03/18 12:55:54;;;;;;;13.90;9.20;;;;;;;;;;5032978;28;20401;-53
2021/03/18 12:58:20;;;;;;;14.43;10.90;;;;;;;;;;5032461;28;20478;-54
2021/03/18 13:00:46;;;;;;;18.50;10.13;;;;;;;;;;5032814;28;20495;-53
2021/03/18 13:03:12;;;;;;;15.63;9.90;;;;;;;;;;5032998;28;20433;-54
2021/03/18 13:05:38;;;;;;;18.70;11.77;;;;;;;;;;5032444;28;20969;-53
2021/03/18 13:08:04;;;;;;;20.40;12.13;;;;;;;;;;5032194;28;20409;-54
2021/03/18 13:10:30;;;;;;;12.43;10.80;;;;;;;;;;5030798;28;20472;-54
2021/03/18 13:12:57;;;;;;;13.83;10.27;;;;;;;;;;5032385;28;20850;-54
2021/03/18 13:15:23;;;;;;;23.33;11.20;;;;;;;;;;5032220;28;20750;-53
2021/03/18 13:17:49;;;;;;;14.00;10.40;;;;;;;;;;5031905;28;20459;-53
2021/03/18 13:20:16;;;;;;;16.13;10.63;;;;;;;;;;5032009;28;20504;-53
2021/03/18 13:22:43;;;;;;;12.87;10.30;;;;;;;;;;5032236;28;20438;-54
2021/03/18 13:25:10;;;;;;;15.47;10.33;;;;;;;;;;5032331;28;20483;-53
2021/03/18 13:27:37;;;;;;;13.80;11.77;;;;;;;;;;5035362;28;20407;-51
2021/03/18 13:30:03;;;;;;;13.93;10.60;;;;;;;;;;5035257;28;20461;-54
2021/03/18 13:32:29;;;;;;;15.30;12.03;;;;;;;;;;5034383;28;20408;-51
2021/03/18 13:34:55;;;;;;;18.87;11.63;;;;;;;;;;5033688;28;20483;-51
2021/03/18 13:37:21;;;;;;;13.13;11.27;;;;;;;;;;5034713;28;20432;-51
2021/03/18 13:39:47;;;;;;;13.57;11.17;;;;;;;;;;5029198;28;21024;-52
2021/03/18 13:42:13;;;;;;;14.90;10.57;;;;;;;;;;5032339;28;20412;-53
2021/03/18 13:44:39;;;;;;;14.70;10.93;;;;;;;;;;5031644;28;20411;-53
2021/03/18 13:47:05;;;;;;;14.87;11.50;;;;;;;;;;5032027;28;20441;-52
2021/03/18 13:49:32;;;;;;;13.87;12.40;;;;;;;;;;5031421;28;20840;-53
2021/03/18 13:51:58;;;;;;;22.07;15.03;;;;;;;;;;5033156;28;20412;-51
2021/03/18 13:54:25;;;;;;;18.77;14.50;;;;;;;;;;5012505;28;20456;-52
2021/03/18 13:56:52;;;;;;;20.47;14.10;;;;;;;;;;5018427;28;20416;-53
2021/03/18 13:59:18;;;;;;;17.60;13.50;;;;;;;;;;5012532;28;20483;-53
2021/03/18 14:01:44;;;;;;;17.00;14.43;;;;;;;;;;5012948;28;20424;-50
2021/03/18 14:04:11;;;;;;;20.63;13.70;;;;;;;;;;5013057;28;20408;-52
2021/03/18 14:06:37;;;;;;;19.47;14.27;;;;;;;;;;5012551;28;20415;-51
2021/03/18 14:09:03;;;;;;;17.27;14.37;;;;;;;;;;5011367;28;20431;-49
2021/03/18 14:11:29;;;;;;;21.17;15.43;;;;;;;;;;5024040;28;20840;-50
2021/03/18 14:13:55;;;;;;;16.30;14.70;;;;;;;;;;5031785;28;20405;-51
2021/03/18 14:16:21;;;;;;;20.17;14.37;;;;;;;;;;5031336;28;21054;-54
2021/03/18 14:18:47;;;;;;;20.30;13.40;;;;;;;;;;5031847;28;20440;-53
2021/03/18 14:21:13;;;;;;;17.43;13.90;;;;;;;;;;5033593;28;20417;-53
2021/03/18 14:23:39;;;;;;;16.00;13.47;;;;;;;;;;5032877;28;20442;-53
2021/03/18 14:26:05;;;;;;;18.70;14.23;;;;;;;;;;5033239;28;20412;-49
2021/03/18 14:28:31;;;;;;;17.33;13.23;;;;;;;;;;5033796;28;20462;-50